CheckWX is a tool to help pilots better visualize weather data.  It is not intended as a substitute for an official pre-flight weather briefing.

18:34:52 UTC

KACQ METAR
Waseca Municipal Airport
Waseca, Minnesota, USA
Current

36 mins ago

KACQ 221759Z AUTO 11007KT 10SM CLR M05/M10 A3038 RMK AO2
Observed
Feb-22 @ 17:59 UTC
Wind
  • 110° at 7 KTS
Visibility
10 SM
Flight Rules
VFR
Cloud Levels
  • Clear skies
Temperature
-5°C / 23°F
Dewpoint
-10°C / 14°F
Humidity
68%
Altimeter
30.38" Hg
Pressure
1028.81 hPa
Previous

56 mins ago

KACQ 221739Z AUTO 11005KT 10SM CLR M06/M09 A3039 RMK AO2
Observed
Feb-22 @ 17:39 UTC
Wind
  • 110° at 5 KTS
Visibility
10 SM
Flight Rules
VFR
Cloud Levels
  • Clear skies
Temperature
-6°C / 21°F
Dewpoint
-9°C / 16°F
Humidity
80%
Altimeter
30.39" Hg
Pressure
1029.11 hPa
Previous

1 hour ago

KACQ 221719Z AUTO 10005KT 10SM CLR M07/M10 A3039 RMK AO2
Observed
Feb-22 @ 17:19 UTC
Wind
  • 100° at 5 KTS
Visibility
10 SM
Flight Rules
VFR
Cloud Levels
  • Clear skies
Temperature
-7°C / 19°F
Dewpoint
-10°C / 14°F
Humidity
79%
Altimeter
30.39" Hg
Pressure
1029.11 hPa